Airfield :







YOU CAN JOIN US ON...

 
LOGIN :

Register | Disclaimer

   EN    FR    IT 

 









Legend :    VFR   Marginal VFR   IFR   Intensive IFR   Very Intensive IFR
Visi :
Ceiling :
>= 8 km
>= 3000ft
5 to 8 km
1000 to 3000 ft
1500m to 5 km
500 to 1000 ft
800 to 1500m
200 to 500 ft
< 800m
< 200 ft
Symbols :   Thunderstorms  Fog  Heavy snow  Heavy precipitations  Wind > 20 kt






- Airport Elevation : 461 ft
- IATA code : YYT


CYYT - St John's Int

CURRENT METAR :
  • 102200Z 24033G48KT 12SM -RA OVC018 13/11 A2984 RMK SF8 SLP111

EXPIRED METARs :
  • 102137Z 23033G46KT 12SM -RA OVC015 13/12 A2984 RMK SF8 SLP110
  • 102100Z 22034G52KT 4SM RA BR OVC012 12/11 A2985 RMK SF8 SLP112
  • 102000Z 21031G45KT 4SM RA BR OVC014 10/09 A2986 RMK SF8 PRESFR SLP118
  • 101930Z 22025G41KT 6SM RA BR OVC012 10/09 A2989 RMK SF8 SLP128

TAF TAF CYYT
Valid from the 10 at 18:00 until the 11 at 18:00 UTC


101740Z 1018/1118 20032G45KT 3SM RA BR BKN004 OVC010
TEMPO 1018/1022 6SM -RA BR SCT004 OVC010
FM102200 23032G45KT 2SM -RA -DZ BR OVC004
TEMPO 1022/1024 6SM -DZ BR SCT004 OVC010
FM110000 23030G45KT 2SM -DZ BR OVC004
BECMG 1113/1115 24015G35KT
BECMG 1116/1118 30015KT RMK NXT FCST BY 110000Z



MET'MAP, your aeronautical weather chart ! - Copyright ORBIFLY December 2007 - Disclaimer

ORBIFLY MET'MAP TEAM :

Programming & Development : Alexandra Zaïnal
Concept & original design : Baudouin d'Aumeries
Assistance for programming : Marc-Olivier Méhu
Technical & hardware support : Manuel Goepfert

Contact : metmap@orbifly.com




SOURCES & CREDITS :

   NOAA